Time;durP1;ratioP1;P1;durP2;ratioP2;P2;SDS_P1;SDS_P2;PMS_P1;PMS_P2;Temp;Humidity;BMP_temperature;BMP_pressure;BME280_temperature;BME280_humidity;BME280_pressure;Samples;Min_cycle;Max_cycle;Signal;HPM_P1;HPM_P2
2021/03/06 00:01:20;;;;;;;1.20;1.20;;;1.60;99.90;;;;;;4997650;28;20266;-78
2021/03/06 00:03:48;;;;;;;1.20;1.20;;;1.50;99.90;;;;;;4999630;28;20275;-79
2021/03/06 00:06:15;;;;;;;1.20;1.20;;;1.40;99.90;;;;;;4998554;28;20651;-78
2021/03/06 00:08:42;;;;;;;1.20;1.20;;;1.50;99.90;;;;;;4998801;28;20831;-78
2021/03/06 00:11:09;;;;;;;1.10;1.10;;;1.40;99.90;;;;;;4999364;28;20204;-80
2021/03/06 00:13:36;;;;;;;1.10;1.10;;;1.50;99.90;;;;;;4997819;28;20199;-78
2021/03/06 00:16:04;;;;;;;1.10;1.10;;;1.60;99.90;;;;;;4997122;28;20652;-78
2021/03/06 00:18:31;;;;;;;1.20;1.20;;;1.70;99.90;;;;;;4997721;28;20698;-78
2021/03/06 00:20:58;;;;;;;1.10;1.10;;;1.70;99.90;;;;;;4997708;28;20228;-78
2021/03/06 00:23:45;;;;;;;1.30;1.30;;;1.70;99.90;;;;;;4998166;28;20278;-78
2021/03/06 00:26:12;;;;;;;1.50;1.50;;;1.70;99.90;;;;;;4996939;28;20232;-78
2021/03/06 00:28:39;;;;;;;1.40;1.40;;;1.70;99.90;;;;;;4996939;28;20218;-78
2021/03/06 00:31:06;;;;;;;1.10;1.10;;;1.40;99.90;;;;;;4996705;28;20852;-78
2021/03/06 00:33:33;;;;;;;1.20;1.20;;;1.50;99.90;;;;;;4996180;28;20212;-79
2021/03/06 00:36:00;;;;;;;1.13;1.13;;;1.40;99.90;;;;;;4996926;28;20234;-78
2021/03/06 00:38:27;;;;;;;1.20;1.20;;;1.00;99.90;;;;;;4996679;28;20251;-78
2021/03/06 00:40:54;;;;;;;1.20;1.20;;;1.50;99.90;;;;;;4995893;28;20319;-78
2021/03/06 00:43:21;;;;;;;1.20;1.20;;;1.30;99.90;;;;;;4996076;28;20259;-78
2021/03/06 00:45:48;;;;;;;1.20;1.20;;;1.00;99.90;;;;;;4996183;28;20224;-78
2021/03/06 00:48:15;;;;;;;1.17;1.17;;;1.10;99.90;;;;;;4996419;28;20200;-78
2021/03/06 00:50:42;;;;;;;1.20;1.20;;;1.10;99.90;;;;;;4996370;28;20204;-78
2021/03/06 00:53:09;;;;;;;1.17;1.17;;;1.20;99.90;;;;;;4995595;28;20707;-78
2021/03/06 00:55:36;;;;;;;1.20;1.20;;;1.40;99.90;;;;;;4996731;28;20227;-78
2021/03/06 00:58:03;;;;;;;1.10;1.10;;;1.40;99.90;;;;;;4996410;28;20200;-78
2021/03/06 01:00:30;;;;;;;1.40;1.40;;;1.50;99.90;;;;;;4996776;28;20278;-78
2021/03/06 01:02:58;;;;;;;1.20;1.20;;;1.60;99.90;;;;;;4996936;28;20207;-79
2021/03/06 01:05:25;;;;;;;1.63;1.63;;;1.60;99.90;;;;;;4996566;28;20224;-79
2021/03/06 01:07:52;;;;;;;1.20;1.20;;;1.60;99.90;;;;;;4997339;28;20211;-79
2021/03/06 01:10:21;;;;;;;1.20;1.20;;;1.60;99.90;;;;;;4997744;28;20207;-79
2021/03/06 01:12:48;;;;;;;1.30;1.30;;;1.60;99.90;;;;;;4996720;28;20207;-78
2021/03/06 01:15:16;;;;;;;1.23;1.23;;;1.50;99.90;;;;;;4996774;28;20274;-79
2021/03/06 01:17:43;;;;;;;1.30;1.30;;;1.50;99.90;;;;;;4996173;28;20231;-79
2021/03/06 01:20:11;;;;;;;1.40;1.40;;;1.40;99.90;;;;;;4996776;28;20227;-78
2021/03/06 01:22:38;;;;;;;1.10;1.10;;;1.50;99.90;;;;;;4996972;28;20636;-78
2021/03/06 01:25:07;;;;;;;1.20;1.20;;;1.30;99.90;;;;;;4996470;28;20716;-78
2021/03/06 01:27:33;;;;;;;1.30;1.30;;;1.10;99.90;;;;;;4996475;28;20553;-79
2021/03/06 01:30:00;;;;;;;1.23;1.23;;;1.20;99.90;;;;;;4996124;28;20625;-78
2021/03/06 01:32:29;;;;;;;1.20;1.20;;;1.30;99.90;;;;;;4995922;28;20262;-78
2021/03/06 01:34:56;;;;;;;1.33;1.33;;;1.20;99.90;;;;;;4996116;28;20775;-78
2021/03/06 01:37:23;;;;;;;1.37;1.37;;;1.10;99.90;;;;;;4996516;28;20250;-79
2021/03/06 01:39:50;;;;;;;1.23;1.23;;;1.20;99.90;;;;;;4996520;28;20204;-79
2021/03/06 01:42:17;;;;;;;1.23;1.23;;;1.30;99.90;;;;;;4996383;28;20223;-78
2021/03/06 01:44:44;;;;;;;1.40;1.40;;;1.20;99.90;;;;;;4996514;28;20204;-80
2021/03/06 01:47:11;;;;;;;1.27;1.27;;;1.00;99.90;;;;;;4996261;28;20200;-79
2021/03/06 01:49:39;;;;;;;1.33;1.33;;;1.10;99.90;;;;;;4996436;28;20259;-80
2021/03/06 01:52:06;;;;;;;1.20;1.20;;;1.30;99.90;;;;;;4996987;28;20223;-78
2021/03/06 01:54:34;;;;;;;1.30;1.30;;;1.30;99.90;;;;;;4999313;28;20204;-78
2021/03/06 01:57:01;;;;;;;1.50;1.50;;;1.30;99.90;;;;;;4999706;28;20728;-78
2021/03/06 01:59:29;;;;;;;1.60;1.60;;;1.30;99.90;;;;;;5000479;28;20594;-80
2021/03/06 02:01:55;;;;;;;1.30;1.30;;;1.20;99.90;;;;;;5000583;28;20228;-78
2021/03/06 02:04:23;;;;;;;1.20;1.20;;;1.10;99.90;;;;;;4998036;28;20243;-80
2021/03/06 02:06:50;;;;;;;1.40;1.40;;;1.20;99.90;;;;;;4994665;28;20632;-80
2021/03/06 02:09:17;;;;;;;1.30;1.30;;;1.20;99.90;;;;;;4994941;28;20256;-77
2021/03/06 02:11:54;;;;;;;1.40;1.40;;;1.10;99.90;;;;;;4996726;28;20258;-79
2021/03/06 02:14:43;;;;;;;1.20;1.20;;;1.00;99.90;;;;;;4997382;28;20603;-78
2021/03/06 02:17:12;;;;;;;1.30;1.30;;;1.00;99.90;;;;;;4996727;28;20185;-81
2021/03/06 02:19:55;;;;;;;1.20;1.20;;;0.90;99.90;;;;;;4996951;28;20725;-80
2021/03/06 02:22:42;;;;;;;1.53;1.53;;;1.00;99.90;;;;;;4996427;28;20266;-78
2021/03/06 02:26:01;;;;;;;1.30;1.30;;;1.10;99.90;;;;;;4998897;28;20644;-81
2021/03/06 02:28:36;;;;;;;1.20;1.20;;;1.00;99.90;;;;;;5001100;28;20192;-78
2021/03/06 02:31:05;;;;;;;1.43;1.43;;;0.90;99.90;;;;;;5001711;28;20184;-78
2021/03/06 02:33:37;;;;;;;1.40;1.40;;;0.80;99.90;;;;;;5001151;28;20557;-77
2021/03/06 02:36:10;;;;;;;1.23;1.23;;;0.90;99.90;;;;;;5001165;28;20869;-78
2021/03/06 02:38:40;;;;;;;1.50;1.50;;;1.00;99.90;;;;;;5000930;28;20192;-78
2021/03/06 02:41:10;;;;;;;1.40;1.40;;;1.10;99.90;;;;;;5001561;28;20227;-78
2021/03/06 02:43:37;;;;;;;1.20;1.20;;;0.90;99.90;;;;;;5001090;28;20260;-80
2021/03/06 02:46:08;;;;;;;1.30;1.30;;;0.90;99.90;;;;;;5000849;28;20223;-80
2021/03/06 02:48:36;;;;;;;1.27;1.27;;;0.20;99.90;;;;;;4997845;28;20195;-80
2021/03/06 02:51:04;;;;;;;1.40;1.40;;;0.90;99.90;;;;;;4998035;28;20207;-80
2021/03/06 02:53:31;;;;;;;1.27;1.27;;;;;;;;;;4998943;28;20203;-78
2021/03/06 02:55:58;;;;;;;1.40;1.40;;;1.00;99.90;;;;;;4998720;28;20585;-80
2021/03/06 02:58:51;;;;;;;1.30;1.30;;;0.50;99.90;;;;;;4998415;28;20199;-78
2021/03/06 03:01:25;;;;;;;1.50;1.50;;;1.20;99.90;;;;;;4997716;28;20227;-78
2021/03/06 03:03:57;;;;;;;1.50;1.50;;;0.70;99.90;;;;;;4998073;28;20219;-78
2021/03/06 03:06:32;;;;;;;1.50;1.50;;;0.60;99.90;;;;;;4998320;28;20708;-78
2021/03/06 03:09:08;;;;;;;1.20;1.20;;;0.60;99.90;;;;;;4998401;28;20195;-78
2021/03/06 03:11:42;;;;;;;1.30;1.30;;;-0.30;99.90;;;;;;4998168;28;20465;-78
2021/03/06 03:14:12;;;;;;;1.30;1.30;;;0.70;99.90;;;;;;4998684;28;20475;-78
2021/03/06 03:16:48;;;;;;;1.30;1.30;;;0.60;99.90;;;;;;4998535;28;20227;-78
2021/03/06 03:19:24;;;;;;;1.13;1.13;;;0.50;99.90;;;;;;4997985;28;20218;-78
2021/03/06 03:21:55;;;;;;;1.30;1.30;;;0.80;99.90;;;;;;4998630;28;20243;-78
2021/03/06 03:24:25;;;;;;;1.40;1.40;;;0.80;99.90;;;;;;4998114;28;20684;-78
2021/03/06 03:26:53;;;;;;;1.40;1.40;;;1.00;99.90;;;;;;4998521;28;20271;-77
2021/03/06 03:29:20;;;;;;;1.40;1.40;;;1.10;99.90;;;;;;4997536;28;20204;-78
2021/03/06 03:31:49;;;;;;;1.20;1.20;;;1.20;99.90;;;;;;4997315;28;20200;-78
2021/03/06 03:34:20;;;;;;;1.40;1.40;;;1.00;99.90;;;;;;4997818;28;20633;-78
2021/03/06 03:36:49;;;;;;;1.30;1.30;;;1.00;99.90;;;;;;4998062;28;20228;-78
2021/03/06 03:39:16;;;;;;;1.30;1.30;;;1.10;99.90;;;;;;4998205;28;20211;-78
2021/03/06 03:41:44;;;;;;;1.30;1.30;;;1.20;99.90;;;;;;4997751;28;20231;-78
2021/03/06 03:44:12;;;;;;;1.30;1.30;;;1.10;99.90;;;;;;4997541;28;20204;-78
2021/03/06 03:46:40;;;;;;;1.20;1.20;;;1.00;99.90;;;;;;4997636;28;20231;-78
2021/03/06 03:49:14;;;;;;;1.40;1.40;;;1.10;99.90;;;;;;4997411;28;20207;-78
2021/03/06 03:51:42;;;;;;;1.40;1.40;;;1.10;99.90;;;;;;4997197;28;20184;-78
2021/03/06 03:54:09;;;;;;;1.27;1.27;;;1.20;99.90;;;;;;4997675;28;20261;-78
2021/03/06 03:56:36;;;;;;;1.30;1.30;;;1.10;99.90;;;;;;4996820;28;20771;-78
2021/03/06 03:59:03;;;;;;;1.30;1.30;;;1.30;99.90;;;;;;4996821;28;20204;-78
2021/03/06 04:01:38;;;;;;;1.37;1.37;;;1.10;99.90;;;;;;4997040;28;20224;-78
2021/03/06 04:04:07;;;;;;;1.40;1.40;;;1.10;99.90;;;;;;4997456;28;20199;-78
2021/03/06 04:06:35;;;;;;;1.47;1.47;;;1.10;99.90;;;;;;4997918;28;20231;-78
2021/03/06 04:09:02;;;;;;;1.30;1.30;;;1.20;99.90;;;;;;4997168;28;20263;-78
2021/03/06 04:11:29;;;;;;;1.40;1.40;;;1.20;99.90;;;;;;4997602;28;20560;-79
2021/03/06 04:13:57;;;;;;;1.30;1.30;;;1.20;99.90;;;;;;4997393;28;20203;-78
2021/03/06 04:16:23;;;;;;;1.40;1.40;;;1.00;99.90;;;;;;4997900;28;20286;-79
2021/03/06 04:18:51;;;;;;;1.20;1.20;;;0.90;99.90;;;;;;4997635;28;20204;-79
2021/03/06 04:21:18;;;;;;;1.30;1.30;;;0.80;99.90;;;;;;4998045;28;20220;-79
2021/03/06 04:23:45;;;;;;;1.30;1.30;;;0.80;99.90;;;;;;4997572;28;20211;-79
2021/03/06 04:26:12;;;;;;;1.30;1.30;;;0.80;99.90;;;;;;4997460;28;20235;-78
2021/03/06 04:28:39;;;;;;;1.30;1.30;;;0.70;99.90;;;;;;4996093;28;20265;-78
2021/03/06 04:31:06;;;;;;;1.20;1.20;;;0.50;99.90;;;;;;4996566;28;20205;-78
2021/03/06 04:33:33;;;;;;;1.50;1.50;;;0.50;99.90;;;;;;4997125;28;20200;-78
2021/03/06 04:36:01;;;;;;;1.40;1.40;;;0.50;99.90;;;;;;4997466;28;20224;-78
2021/03/06 04:38:29;;;;;;;1.20;1.20;;;0.50;99.90;;;;;;4996125;28;20216;-78
2021/03/06 04:40:58;;;;;;;1.43;1.43;;;0.00;99.90;;;;;;4996756;28;20643;-78
2021/03/06 04:43:25;;;;;;;1.20;1.20;;;0.40;99.90;;;;;;4996310;28;20211;-78
2021/03/06 04:45:52;;;;;;;1.30;1.30;;;0.40;99.90;;;;;;4996628;28;20775;-78
2021/03/06 04:48:19;;;;;;;1.20;1.20;;;0.40;99.90;;;;;;4995869;28;20219;-78
2021/03/06 04:50:46;;;;;;;1.30;1.30;;;0.40;99.90;;;;;;4996469;28;20204;-78
2021/03/06 04:53:14;;;;;;;1.20;1.20;;;0.40;99.90;;;;;;4996313;28;20204;-78
2021/03/06 04:55:41;;;;;;;1.20;1.20;;;0.50;99.90;;;;;;4996295;28;20228;-78
2021/03/06 04:58:09;;;;;;;1.30;1.30;;;0.70;99.90;;;;;;4996483;28;20200;-78
2021/03/06 05:00:35;;;;;;;1.37;1.37;;;0.40;99.90;;;;;;4996293;28;20731;-78
2021/03/06 05:03:02;;;;;;;1.30;1.30;;;0.50;99.90;;;;;;4996537;28;20697;-78
2021/03/06 05:05:29;;;;;;;1.30;1.30;;;0.20;99.90;;;;;;4996706;28;20318;-78
2021/03/06 05:07:56;;;;;;;1.20;1.20;;;0.40;99.90;;;;;;4995849;28;20673;-78
2021/03/06 05:10:24;;;;;;;1.40;1.40;;;0.30;99.90;;;;;;4995927;28;20204;-78
2021/03/06 05:12:52;;;;;;;1.30;1.30;;;;;;;;;;4997725;28;20200;-79
2021/03/06 05:15:20;;;;;;;1.30;1.30;;;0.20;99.90;;;;;;4995805;28;20255;-81
2021/03/06 05:17:47;;;;;;;1.50;1.50;;;0.10;99.90;;;;;;4996171;28;20204;-78
2021/03/06 05:20:15;;;;;;;1.40;1.40;;;0.00;99.90;;;;;;4996343;28;20258;-79
2021/03/06 05:22:42;;;;;;;1.40;1.40;;;0.20;99.90;;;;;;4995926;28;20220;-78
2021/03/06 05:25:10;;;;;;;1.43;1.43;;;0.10;99.90;;;;;;4995939;28;20235;-79
2021/03/06 05:27:37;;;;;;;1.40;1.40;;;0.80;99.90;;;;;;4996451;28;20192;-79
2021/03/06 05:30:07;;;;;;;1.43;1.43;;;0.20;99.90;;;;;;4996173;28;20210;-78
2021/03/06 05:32:35;;;;;;;1.30;1.30;;;0.20;99.90;;;;;;4996248;28;20612;-79
2021/03/06 05:35:03;;;;;;;1.60;1.60;;;0.10;99.90;;;;;;4993254;28;20324;-79
2021/03/06 05:37:30;;;;;;;1.30;1.30;;;0.20;99.90;;;;;;4992117;28;20197;-79
2021/03/06 05:39:57;;;;;;;1.30;1.30;;;0.00;99.90;;;;;;4976169;28;20208;-78
2021/03/06 05:42:24;;;;;;;1.27;1.27;;;0.30;99.90;;;;;;4976062;28;20271;-78
2021/03/06 05:44:53;;;;;;;1.53;1.53;;;0.10;99.90;;;;;;4974601;28;20232;-77
2021/03/06 05:47:20;;;;;;;1.50;1.50;;;0.10;99.90;;;;;;4977347;28;20644;-79
2021/03/06 05:49:49;;;;;;;1.40;1.40;;;0.10;99.90;;;;;;4976938;28;20228;-79
2021/03/06 05:52:18;;;;;;;1.20;1.20;;;0.30;99.90;;;;;;4976406;28;20684;-78
2021/03/06 05:54:48;;;;;;;1.60;1.60;;;0.60;99.90;;;;;;4975327;28;20205;-77
2021/03/06 05:57:16;;;;;;;1.30;1.30;;;0.90;99.90;;;;;;4975637;28;20189;-78
2021/03/06 05:59:45;;;;;;;1.40;1.40;;;0.50;99.90;;;;;;4977657;28;20220;-78
2021/03/06 06:02:12;;;;;;;1.30;1.30;;;1.20;99.90;;;;;;4978907;28;20264;-77
2021/03/06 06:04:42;;;;;;;1.53;1.53;;;0.00;99.90;;;;;;4979149;28;20556;-77
2021/03/06 06:07:10;;;;;;;1.40;1.40;;;0.00;99.90;;;;;;4978579;28;20205;-77
2021/03/06 06:09:36;;;;;;;1.20;1.20;;;0.20;99.90;;;;;;4978690;28;20209;-77
2021/03/06 06:12:06;;;;;;;1.40;1.40;;;0.10;99.90;;;;;;4978693;28;20204;-78
2021/03/06 06:14:38;;;;;;;1.30;1.30;;;0.30;99.90;;;;;;4978322;28;20196;-76
2021/03/06 06:17:07;;;;;;;1.30;1.30;;;0.10;99.90;;;;;;4976214;28;20624;-75
2021/03/06 06:19:35;;;;;;;1.30;1.30;;;0.20;99.90;;;;;;4975900;28;20669;-75
2021/03/06 06:22:03;;;;;;;1.60;1.60;;;0.50;99.90;;;;;;4975952;28;20228;-75
2021/03/06 06:24:30;;;;;;;1.20;1.20;;;0.40;99.90;;;;;;4975953;28;20259;-75
2021/03/06 06:26:59;;;;;;;1.40;1.40;;;0.50;99.90;;;;;;4975905;28;20236;-72
2021/03/06 06:29:37;;;;;;;1.63;1.63;;;0.60;99.90;;;;;;4975694;28;20204;-75
2021/03/06 06:32:05;;;;;;;1.30;1.30;;;0.60;99.90;;;;;;4975765;28;20204;-76
2021/03/06 06:34:32;;;;;;;1.37;1.37;;;0.70;99.90;;;;;;4975798;28;20215;-75
2021/03/06 06:37:01;;;;;;;1.23;1.23;;;0.80;99.90;;;;;;4975894;28;20208;-73
2021/03/06 06:39:30;;;;;;;1.40;1.40;;;1.00;99.90;;;;;;4976193;28;20204;-72
2021/03/06 06:42:00;;;;;;;1.40;1.40;;;1.00;99.90;;;;;;4975364;28;20698;-72
2021/03/06 06:44:28;;;;;;;1.30;1.30;;;1.10;99.90;;;;;;4975929;28;20208;-73
2021/03/06 06:47:11;;;;;;;1.20;1.20;;;1.40;99.90;;;;;;4976060;28;20193;-75
2021/03/06 06:49:46;;;;;;;1.40;1.40;;;1.50;99.90;;;;;;4975775;28;20204;-76
2021/03/06 06:52:14;;;;;;;1.30;1.30;;;1.40;99.90;;;;;;4975366;28;20263;-77
2021/03/06 06:54:51;;;;;;;1.40;1.40;;;1.30;99.90;;;;;;4975547;28;20649;-77
2021/03/06 06:57:18;;;;;;;1.40;1.40;;;1.20;99.90;;;;;;4975401;28;20694;-77
2021/03/06 06:59:58;;;;;;;1.40;1.40;;;1.40;99.90;;;;;;4975511;28;20626;-75
2021/03/06 07:02:26;;;;;;;1.50;1.50;;;1.40;99.90;;;;;;4974946;28;20212;-75
2021/03/06 07:04:55;;;;;;;1.30;1.30;;;1.40;99.90;;;;;;4981289;28;20228;-75
2021/03/06 07:07:23;;;;;;;1.10;1.10;;;1.50;99.90;;;;;;4992934;28;20259;-73
2021/03/06 07:10:00;;;;;;;1.20;1.20;;;1.90;99.90;;;;;;4999870;28;20191;-77
2021/03/06 07:12:28;;;;;;;1.40;1.40;;;1.60;99.90;;;;;;5014119;28;20261;-76
2021/03/06 07:14:56;;;;;;;1.50;1.50;;;1.50;99.90;;;;;;5014584;28;20567;-76
2021/03/06 07:17:24;;;;;;;1.40;1.40;;;2.10;99.90;;;;;;5014459;28;20301;-76
2021/03/06 07:19:51;;;;;;;1.30;1.30;;;1.50;99.90;;;;;;5014380;28;20203;-76
2021/03/06 07:22:18;;;;;;;1.30;1.30;;;1.50;99.90;;;;;;5014108;28;20320;-77
2021/03/06 07:24:46;;;;;;;1.30;1.30;;;1.50;99.90;;;;;;5013995;28;20249;-77
2021/03/06 07:27:14;;;;;;;1.40;1.40;;;1.80;99.90;;;;;;5014348;28;20211;-75
2021/03/06 07:29:41;;;;;;;1.33;1.33;;;1.80;99.90;;;;;;5014057;28;20623;-74
2021/03/06 07:32:12;;;;;;;1.30;1.30;;;2.00;99.90;;;;;;5003937;28;20200;-74
2021/03/06 07:34:39;;;;;;;1.30;1.30;;;2.20;99.90;;;;;;5006351;28;20209;-78
2021/03/06 07:37:08;;;;;;;1.40;1.40;;;2.40;99.90;;;;;;5003237;28;20613;-79
2021/03/06 07:39:38;;;;;;;1.40;1.40;;;2.30;99.90;;;;;;5013060;28;20273;-78
2021/03/06 07:42:20;;;;;;;1.23;1.23;;;2.30;99.90;;;;;;5013700;28;20223;-73
2021/03/06 07:44:51;;;;;;;1.37;1.37;;;2.40;99.90;;;;;;4996241;28;20279;-78
2021/03/06 07:47:21;;;;;;;1.20;1.20;;;2.80;99.90;;;;;;4975872;28;20281;-77
2021/03/06 07:49:49;;;;;;;1.40;1.40;;;2.80;99.90;;;;;;4974479;28;20752;-77
2021/03/06 07:52:18;;;;;;;1.20;1.20;;;3.10;99.90;;;;;;4974218;28;20725;-77
2021/03/06 07:54:44;;;;;;;1.30;1.30;;;2.90;99.90;;;;;;4974081;28;20251;-77
2021/03/06 07:57:11;;;;;;;1.30;1.30;;;3.00;99.90;;;;;;4974487;28;20204;-77
2021/03/06 07:59:49;;;;;;;1.30;1.30;;;3.10;99.90;;;;;;4974151;28;20256;-77
2021/03/06 08:02:40;;;;;;;1.50;1.50;;;3.10;99.90;;;;;;4974236;28;20223;-78
2021/03/06 08:05:46;;;;;;;1.30;1.30;;;3.20;99.90;;;;;;4974342;28;20229;-78
2021/03/06 08:08:47;;;;;;;1.50;1.50;;;3.20;99.90;;;;;;4974389;28;20692;-77
2021/03/06 08:11:16;;;;;;;1.20;1.20;;;3.10;99.90;;;;;;4974855;28;20201;-77
2021/03/06 08:13:47;;;;;;;1.30;1.30;;;3.40;99.90;;;;;;4974052;28;20563;-76
2021/03/06 08:16:40;;;;;;;1.30;1.30;;;3.40;99.90;;;;;;4974299;28;20570;-76
2021/03/06 08:19:23;;;;;;;1.10;1.10;;;3.60;99.90;;;;;;4974749;28;20259;-78
2021/03/06 08:21:51;;;;;;;1.10;1.10;;;3.50;99.90;;;;;;4972692;28;20236;-77
2021/03/06 08:24:28;;;;;;;1.33;1.33;;;3.20;99.90;;;;;;4972704;28;20208;-77
2021/03/06 08:27:18;;;;;;;1.40;1.40;;;3.40;99.90;;;;;;4974519;28;20208;-77
2021/03/06 08:29:48;;;;;;;1.30;1.30;;;3.50;99.90;;;;;;4973961;28;20252;-77
2021/03/06 08:32:25;;;;;;;1.10;1.10;;;3.60;99.90;;;;;;4974028;28;20200;-78
2021/03/06 08:34:53;;;;;;;1.30;1.30;;;3.50;99.90;;;;;;4974031;28;20232;-77
2021/03/06 08:37:39;;;;;;;1.30;1.30;;;3.40;99.90;;;;;;4974081;28;20252;-77
2021/03/06 08:40:23;;;;;;;1.23;1.23;;;3.40;99.90;;;;;;4973865;28;20228;-77
2021/03/06 08:42:52;;;;;;;1.40;1.40;;;3.70;99.90;;;;;;4972816;28;20224;-79
2021/03/06 08:45:22;;;;;;;1.30;1.30;;;3.70;99.90;;;;;;4973800;28;20275;-76
2021/03/06 08:47:54;;;;;;;1.40;1.40;;;3.80;99.90;;;;;;4973447;28;20732;-77
2021/03/06 08:50:23;;;;;;;1.20;1.20;;;3.50;99.90;;;;;;4973919;28;20226;-77
2021/03/06 08:52:58;;;;;;;1.20;1.20;;;3.80;99.90;;;;;;4974040;28;20216;-77
2021/03/06 08:55:27;;;;;;;1.30;1.30;;;4.00;99.90;;;;;;4973882;28;20283;-77
2021/03/06 08:57:54;;;;;;;1.30;1.30;;;4.10;99.90;;;;;;4973594;28;20231;-77
2021/03/06 09:00:25;;;;;;;1.20;1.20;;;4.00;99.90;;;;;;4973619;28;20209;-77
2021/03/06 09:02:52;;;;;;;1.33;1.33;;;4.10;99.90;;;;;;4973347;28;20232;-77
2021/03/06 09:05:21;;;;;;;1.40;1.40;;;4.20;99.90;;;;;;4973404;28;20228;-77
2021/03/06 09:07:50;;;;;;;1.13;1.13;;;4.30;99.90;;;;;;4973276;28;20255;-77
2021/03/06 09:10:35;;;;;;;1.33;1.33;;;4.50;99.90;;;;;;4973244;28;20696;-76
2021/03/06 09:13:05;;;;;;;1.40;1.40;;;4.60;99.90;;;;;;4973374;28;20204;-76
2021/03/06 09:15:44;;;;;;;1.30;1.30;;;4.50;99.70;;;;;;4973418;28;20224;-77
2021/03/06 09:18:15;;;;;;;1.20;1.20;;;4.60;97.20;;;;;;4973416;28;20242;-76
2021/03/06 09:20:55;;;;;;;1.20;1.20;;;4.60;96.80;;;;;;4973365;28;20204;-77
2021/03/06 09:23:27;;;;;;;1.30;1.30;;;4.50;97.70;;;;;;4973280;28;20221;-77
2021/03/06 09:25:54;;;;;;;1.23;1.23;;;4.70;97.90;;;;;;4973067;28;20260;-76
2021/03/06 09:28:26;;;;;;;1.20;1.20;;;4.70;96.00;;;;;;4972917;28;20670;-76
2021/03/06 09:30:54;;;;;;;1.20;1.20;;;4.80;97.80;;;;;;4973428;28;20263;-77
2021/03/06 09:33:29;;;;;;;1.17;1.17;;;4.90;98.50;;;;;;4975139;28;20200;-77
2021/03/06 09:35:59;;;;;;;1.27;1.27;;;5.00;98.10;;;;;;4977077;28;20227;-76
2021/03/06 09:38:33;;;;;;;1.47;1.47;;;4.90;93.20;;;;;;4977149;28;20211;-76
2021/03/06 09:41:00;;;;;;;1.20;1.20;;;4.90;95.60;;;;;;4976750;28;20204;-76
2021/03/06 09:43:30;;;;;;;1.10;1.10;;;4.90;91.30;;;;;;4976668;28;20234;-76
2021/03/06 09:45:59;;;;;;;1.20;1.20;;;4.90;92.10;;;;;;4976639;28;20600;-76
2021/03/06 09:48:27;;;;;;;1.37;1.37;;;5.00;90.00;;;;;;4976623;28;20725;-76
2021/03/06 09:50:57;;;;;;;1.30;1.30;;;5.00;90.00;;;;;;4976662;28;20584;-76
2021/03/06 09:53:26;;;;;;;1.20;1.20;;;5.10;89.20;;;;;;4976814;28;20746;-78
2021/03/06 09:56:05;;;;;;;1.50;1.50;;;5.40;99.90;;;;;;4976367;28;20228;-75
2021/03/06 09:58:32;;;;;;;1.30;1.30;;;5.30;85.90;;;;;;4976627;28;20670;-75
2021/03/06 10:01:20;;;;;;;1.10;1.10;;;5.50;87.00;;;;;;4976145;28;20201;-76
2021/03/06 10:03:49;;;;;;;1.30;1.30;;;5.40;86.20;;;;;;4972066;28;20224;-76
2021/03/06 10:06:19;;;;;;;1.10;1.10;;;5.40;84.90;;;;;;4976764;28;20686;-76
2021/03/06 10:08:51;;;;;;;1.10;1.10;;;5.40;85.90;;;;;;4976979;28;20201;-76
2021/03/06 10:11:19;;;;;;;1.20;1.20;;;5.30;85.00;;;;;;4991153;28;20282;-77
2021/03/06 10:13:51;;;;;;;1.30;1.30;;;5.40;83.20;;;;;;4996567;28;20246;-77
2021/03/06 10:16:19;;;;;;;1.10;1.10;;;5.20;85.10;;;;;;4997141;28;20268;-77
2021/03/06 10:18:47;;;;;;;1.30;1.30;;;5.10;87.40;;;;;;4997840;28;20228;-77
2021/03/06 10:21:17;;;;;;;1.30;1.30;;;5.30;91.60;;;;;;4995685;28;20731;-77
2021/03/06 10:23:45;;;;;;;1.30;1.30;;;5.40;87.40;;;;;;4995353;28;20310;-76
2021/03/06 10:26:18;;;;;;;1.60;1.60;;;5.50;85.50;;;;;;4995105;28;20232;-76
2021/03/06 10:28:45;;;;;;;1.40;1.40;;;5.60;84.90;;;;;;4995331;28;20296;-76
2021/03/06 10:31:39;;;;;;;1.30;1.30;;;5.70;85.30;;;;;;4995107;28;20208;-77
2021/03/06 10:34:19;;;;;;;1.30;1.30;;;5.60;83.70;;;;;;4995150;28;20294;-76
2021/03/06 10:37:09;;;;;;;1.20;1.20;;;5.60;88.20;;;;;;4995110;28;20224;-76
2021/03/06 10:39:50;;;;;;;1.30;1.30;;;5.60;85.70;;;;;;4995005;28;20191;-77
2021/03/06 10:42:17;;;;;;;1.50;1.50;;;5.60;84.60;;;;;;4995851;28;20291;-76
2021/03/06 10:44:44;;;;;;;1.20;1.20;;;5.50;83.80;;;;;;4995511;28;20203;-77
2021/03/06 10:47:11;;;;;;;1.33;1.33;;;5.60;84.30;;;;;;4997683;28;20223;-77
2021/03/06 10:49:41;;;;;;;1.20;1.20;;;5.70;83.50;;;;;;4998693;28;20286;-76
2021/03/06 10:52:24;;;;;;;1.10;1.10;;;5.60;82.90;;;;;;4995699;28;20287;-76
2021/03/06 10:54:53;;;;;;;1.20;1.20;;;5.60;82.80;;;;;;4998010;28;20224;-78
2021/03/06 10:57:20;;;;;;;1.30;1.30;;;5.60;82.70;;;;;;4999285;28;20212;-80
2021/03/06 10:59:47;;;;;;;1.20;1.20;;;5.60;82.60;;;;;;5008582;28;20203;-80
2021/03/06 11:02:28;;;;;;;1.10;1.10;;;5.60;82.00;;;;;;5012678;28;20267;-81
2021/03/06 11:05:15;;;;;;;1.27;1.27;;;5.70;82.10;;;;;;4996354;28;20241;-76
2021/03/06 11:07:42;;;;;;;1.10;1.10;;;5.80;80.70;;;;;;4988203;28;20744;-78
2021/03/06 11:10:10;;;;;;;1.20;1.20;;;5.80;81.90;;;;;;4994195;28;20208;-74
2021/03/06 11:12:37;;;;;;;1.20;1.20;;;5.60;78.40;;;;;;4994576;28;20727;-76
2021/03/06 11:15:09;;;;;;;1.20;1.20;;;5.70;80.90;;;;;;4995670;28;20228;-74
2021/03/06 11:17:37;;;;;;;1.27;1.27;;;5.90;79.10;;;;;;4994681;28;20580;-76
2021/03/06 11:20:09;;;;;;;1.20;1.20;;;5.90;80.60;;;;;;4995323;28;20208;-78
2021/03/06 11:22:36;;;;;;;1.20;1.20;;;5.90;79.70;;;;;;4995267;28;20279;-77
2021/03/06 11:25:04;;;;;;;1.20;1.20;;;5.90;80.60;;;;;;4994315;28;20236;-78
2021/03/06 11:27:45;;;;;;;1.20;1.20;;;5.80;80.10;;;;;;4992863;28;20735;-77
2021/03/06 11:30:13;;;;;;;1.30;1.30;;;5.80;80.00;;;;;;4975627;28;20215;-77
2021/03/06 11:32:41;;;;;;;1.20;1.20;;;5.80;76.80;;;;;;4974874;28;20227;-77
2021/03/06 11:35:10;;;;;;;1.20;1.20;;;5.80;78.20;;;;;;4974004;28;20237;-76
2021/03/06 11:37:37;;;;;;;1.00;1.00;;;5.80;78.40;;;;;;4989147;28;20280;-77
2021/03/06 11:40:06;;;;;;;1.10;1.10;;;5.80;80.90;;;;;;4975615;28;20213;-77
2021/03/06 11:42:33;;;;;;;1.17;1.17;;;5.90;78.80;;;;;;4974661;28;20224;-76
2021/03/06 11:45:00;;;;;;;1.20;1.20;;;5.80;78.30;;;;;;4974989;28;20220;-76
2021/03/06 11:47:26;;;;;;;1.30;1.30;;;5.90;79.70;;;;;;4976092;28;20200;-76
2021/03/06 11:49:53;;;;;;;1.20;1.20;;;5.90;78.80;;;;;;4976319;28;20208;-76
2021/03/06 11:52:21;;;;;;;1.33;1.33;;;5.90;79.40;;;;;;4975903;28;20204;-78
2021/03/06 11:54:48;;;;;;;1.20;1.20;;;5.90;79.60;;;;;;4976486;28;20224;-75
2021/03/06 11:57:24;;;;;;;1.20;1.20;;;6.00;78.40;;;;;;4973873;28;20629;-77
2021/03/06 11:59:51;;;;;;;1.20;1.20;;;6.00;79.70;;;;;;4977879;28;20228;-78
2021/03/06 12:02:17;;;;;;;1.20;1.20;;;6.00;79.10;;;;;;4978542;28;20275;-77
2021/03/06 12:04:45;;;;;;;1.20;1.20;;;6.10;78.30;;;;;;4976275;28;20204;-76
2021/03/06 12:07:12;;;;;;;1.30;1.30;;;6.10;79.50;;;;;;4974638;28;20217;-77
2021/03/06 12:09:41;;;;;;;1.10;1.10;;;6.20;79.00;;;;;;4975085;28;20205;-77
2021/03/06 12:12:08;;;;;;;1.00;1.00;;;6.00;78.00;;;;;;4974143;28;20204;-76
2021/03/06 12:14:35;;;;;;;1.10;1.10;;;6.10;77.40;;;;;;4974056;28;20608;-76
2021/03/06 12:17:03;;;;;;;1.00;1.00;;;6.10;76.60;;;;;;4973820;28;20229;-77
2021/03/06 12:19:30;;;;;;;1.20;1.20;;;6.30;77.50;;;;;;4973727;28;20215;-78
2021/03/06 12:21:58;;;;;;;1.20;1.20;;;6.10;75.90;;;;;;4972193;28;20200;-76
2021/03/06 12:24:25;;;;;;;1.30;1.30;;;6.30;74.20;;;;;;4974030;28;20209;-76
2021/03/06 12:26:53;;;;;;;1.20;1.20;;;6.30;73.90;;;;;;4973740;28;20232;-77
2021/03/06 12:29:20;;;;;;;1.10;1.10;;;6.30;73.20;;;;;;4973799;28;20375;-77
2021/03/06 12:31:47;;;;;;;1.20;1.20;;;6.30;74.40;;;;;;4973214;28;20204;-77
2021/03/06 12:34:17;;;;;;;1.10;1.10;;;6.40;73.40;;;;;;4987984;28;20663;-76
2021/03/06 12:36:45;;;;;;;0.90;0.90;;;6.30;74.70;;;;;;5005838;28;20248;-78
2021/03/06 12:39:12;;;;;;;1.20;1.20;;;6.20;75.10;;;;;;5009024;28;20285;-77
2021/03/06 12:41:39;;;;;;;1.20;1.20;;;6.30;75.00;;;;;;4986323;28;20677;-77
2021/03/06 12:44:07;;;;;;;1.13;1.13;;;6.30;75.90;;;;;;4974454;28;20224;-78
2021/03/06 12:46:35;;;;;;;1.20;1.20;;;6.30;75.10;;;;;;4973947;28;20239;-77
2021/03/06 12:49:06;;;;;;;1.13;1.13;;;6.30;74.00;;;;;;4973921;28;20677;-77
2021/03/06 12:51:33;;;;;;;1.00;1.00;;;6.40;75.10;;;;;;4973884;28;20225;-77
2021/03/06 12:54:00;;;;;;;1.20;1.20;;;6.40;75.40;;;;;;4973619;28;20201;-77
2021/03/06 12:56:27;;;;;;;1.10;1.10;;;6.50;76.10;;;;;;4974276;28;20573;-77
2021/03/06 12:58:56;;;;;;;1.10;1.10;;;6.50;74.40;;;;;;4978438;28;20199;-78
2021/03/06 13:01:26;;;;;;;1.20;1.20;;;6.30;73.10;;;;;;4996010;28;20208;-78
2021/03/06 13:03:54;;;;;;;1.00;1.00;;;6.40;72.70;;;;;;4995572;28;20227;-79
2021/03/06 13:06:21;;;;;;;1.10;1.10;;;6.50;73.30;;;;;;4996510;28;20286;-78
2021/03/06 13:08:50;;;;;;;1.00;1.00;;;6.40;73.60;;;;;;4995282;28;20208;-79
2021/03/06 13:11:20;;;;;;;1.00;1.00;;;6.30;72.20;;;;;;4981541;28;20207;-80
2021/03/06 13:13:50;;;;;;;1.10;1.10;;;6.30;72.60;;;;;;4985867;28;20212;-80